METAR Data
IDs: Format: Raw Decoded Include TAF

Data at: 1348 UTC 14 Dec 2019

METAR for:KCBF (Council Bluffs Muni, IA, US)
Text:KCBF 141335Z AUTO 33015KT 8SM -SN OVC012 M08/M08 A2996 RMK AO2
Temperature: -8.0°C ( 18°F)
Dewpoint: -8.0°C ( 18°F) [RH = 100%]
Pressure (altimeter):29.96 inches Hg (1014.6 mb)
Winds:from the NNW (330 degrees) at 17 MPH (15 knots; 7.7 m/s)
Visibility: 8 sm ( 13 km)
Ceiling:1200 feet AGL
Clouds: overcast cloud deck at 1200 feet AGL
Weather:-SN (light snow)
QC Flag:automated observation with no human augmentation